Time;durP1;ratioP1;P1;durP2;ratioP2;P2;SDS_P1;SDS_P2;PMS_P1;PMS_P2;Temp;Humidity;BMP_temperature;BMP_pressure;BME280_temperature;BME280_humidity;BME280_pressure;Samples;Min_cycle;Max_cycle;Signal;HPM_P1;HPM_P2
2021/06/01 00:01:39;;;;;;;6.33;5.93;;;15.40;91.90;;;;;;5036081;28;20417;-80
2021/06/01 00:04:09;;;;;;;6.13;5.73;;;15.40;92.80;;;;;;5021521;28;20418;-79
2021/06/01 00:06:36;;;;;;;7.10;6.40;;;15.30;93.40;;;;;;5055686;28;20879;-79
2021/06/01 00:09:10;;;;;;;6.60;5.67;;;15.20;94.90;;;;;;5055131;28;20459;-79
2021/06/01 00:11:37;;;;;;;5.87;5.33;;;15.20;95.70;;;;;;5038017;28;20859;-79
2021/06/01 00:14:04;;;;;;;6.30;5.90;;;15.10;96.50;;;;;;5042812;28;20428;-79
2021/06/01 00:16:30;;;;;;;6.33;5.83;;;15.10;97.20;;;;;;5018179;28;20423;-79
2021/06/01 00:18:57;;;;;;;6.37;5.97;;;14.90;98.40;;;;;;5021701;28;20449;-79
2021/06/01 00:21:30;;;;;;;5.50;5.10;;;14.90;98.70;;;;;;5054689;28;20434;-79
2021/06/01 00:24:00;;;;;;;6.60;5.83;;;14.80;98.80;;;;;;5054768;28;20949;-79
2021/06/01 00:26:26;;;;;;;6.53;6.03;;;14.80;98.70;;;;;;5055129;28;20469;-79
2021/06/01 00:29:05;;;;;;;5.90;5.50;;;14.70;98.90;;;;;;5042401;28;20442;-79
2021/06/01 00:31:34;;;;;;;7.07;5.67;;;14.60;98.90;;;;;;5037449;28;20466;-79
2021/06/01 00:34:06;;;;;;;5.97;5.57;;;14.60;99.00;;;;;;5037598;28;20421;-79
2021/06/01 00:36:32;;;;;;;6.10;5.63;;;14.50;99.40;;;;;;5054592;28;20517;-79
2021/06/01 00:39:00;;;;;;;6.73;6.23;;;14.40;99.90;;;;;;5054065;28;20493;-79
2021/06/01 00:41:33;;;;;;;7.40;6.80;;;14.40;99.90;;;;;;5021934;28;21125;-79
2021/06/01 00:44:05;;;;;;;6.67;5.80;;;14.30;99.90;;;;;;5035403;28;20472;-79
2021/06/01 00:46:31;;;;;;;6.33;5.73;;;14.30;99.90;;;;;;5049548;28;20901;-79
2021/06/01 00:49:02;;;;;;;5.70;5.30;;;14.20;99.90;;;;;;5049306;28;20605;-79
2021/06/01 00:51:33;;;;;;;6.17;5.67;;;14.20;99.90;;;;;;5034697;28;20430;-79
2021/06/01 00:54:01;;;;;;;5.73;5.23;;;14.20;99.90;;;;;;5035434;28;20807;-79
2021/06/01 00:56:33;;;;;;;5.97;5.47;;;14.10;99.90;;;;;;5047955;28;21005;-79
2021/06/01 00:59:01;;;;;;;5.70;5.30;;;14.10;99.90;;;;;;5044636;28;20441;-79
2021/06/01 01:01:30;;;;;;;7.80;5.90;;;14.00;99.90;;;;;;5054591;28;20772;-79
2021/06/01 01:03:56;;;;;;;6.60;5.90;;;14.00;99.90;;;;;;5042983;28;20437;-79
2021/06/01 01:06:59;;;;;;;6.40;5.80;;;13.90;99.90;;;;;;5034411;28;20434;-79
2021/06/01 01:09:34;;;;;;;6.37;5.83;;;13.90;99.90;;;;;;5013853;28;20494;-80
2021/06/01 01:12:07;;;;;;;6.50;6.00;;;13.90;99.90;;;;;;5026521;28;20418;-79
2021/06/01 01:14:42;;;;;;;5.40;5.00;;;13.90;99.90;;;;;;5017026;28;20458;-79
2021/06/01 01:17:16;;;;;;;5.87;5.27;;;13.90;99.90;;;;;;5045783;28;20430;-79
2021/06/01 01:20:05;;;;;;;6.53;6.03;;;13.90;99.90;;;;;;5044088;28;20430;-79
2021/06/01 01:22:33;;;;;;;6.20;5.70;;;13.90;99.90;;;;;;5053791;28;20500;-79
2021/06/01 01:25:13;;;;;;;6.50;5.60;;;13.90;99.90;;;;;;5047473;28;20425;-79
2021/06/01 01:28:00;;;;;;;6.90;5.60;;;13.90;99.90;;;;;;5033488;28;20798;-79
2021/06/01 01:30:58;;;;;;;6.57;5.97;;;14.00;99.90;;;;;;5048225;28;20817;-80
2021/06/01 01:33:32;;;;;;;6.70;5.70;;;13.90;99.90;;;;;;5043516;28;20469;-79
2021/06/01 01:36:04;;;;;;;5.87;5.47;;;13.90;99.90;;;;;;5033969;28;20425;-79
2021/06/01 01:38:31;;;;;;;5.90;5.40;;;13.90;99.90;;;;;;5039580;28;20433;-79
2021/06/01 01:41:17;;;;;;;6.13;5.53;;;13.80;99.90;;;;;;5053848;28;20736;-79
2021/06/01 01:43:51;;;;;;;7.40;5.80;;;13.90;99.90;;;;;;5027306;28;20524;-80
2021/06/01 01:48:58;;;;;;;6.33;5.30;;;13.90;99.90;;;;;;5024579;28;20553;-79
2021/06/01 01:51:30;;;;;;;6.07;5.67;;;13.90;99.90;;;;;;5052700;28;20453;-79
2021/06/01 01:54:01;;;;;;;5.67;5.27;;;13.90;99.90;;;;;;5042086;28;20887;-79
2021/06/01 01:56:36;;;;;;;6.70;6.07;;;13.80;99.90;;;;;;5016633;28;20513;-79
2021/06/01 01:59:05;;;;;;;5.93;5.43;;;13.80;99.90;;;;;;5033937;28;20926;-79
2021/06/01 02:01:37;;;;;;;7.33;5.93;;;13.70;99.90;;;;;;5044628;28;20482;-79
2021/06/01 02:04:06;;;;;;;8.10;6.53;;;13.70;99.90;;;;;;5016318;28;20418;-79
2021/06/01 02:06:32;;;;;;;5.47;5.00;;;13.60;99.90;;;;;;5047963;28;20458;-79
2021/06/01 02:09:03;;;;;;;8.40;5.60;;;13.60;99.90;;;;;;5036312;28;20944;-79
2021/06/01 02:11:35;;;;;;;5.90;5.50;;;13.40;99.90;;;;;;5042046;28;20427;-79
2021/06/01 02:14:07;;;;;;;5.60;5.20;;;13.40;99.90;;;;;;5004207;28;20483;-79
2021/06/01 02:16:38;;;;;;;5.90;5.00;;;13.30;99.90;;;;;;5037939;28;20437;-80
2021/06/01 02:19:10;;;;;;;6.60;6.10;;;13.30;99.90;;;;;;5036816;28;20436;-79
2021/06/01 02:24:37;;;;;;;5.77;5.37;;;13.20;99.90;;;;;;5043679;28;20440;-79
2021/06/01 02:27:09;;;;;;;6.10;5.50;;;13.10;99.90;;;;;;5027862;28;20796;-79
2021/06/01 02:29:40;;;;;;;6.40;5.90;;;13.10;99.90;;;;;;5043407;28;20517;-79
2021/06/01 02:32:06;;;;;;;7.97;5.63;;;13.10;99.90;;;;;;5059470;28;20432;-79
2021/06/01 02:34:44;;;;;;;5.63;5.23;;;13.00;99.90;;;;;;5059728;28;20425;-79
2021/06/01 02:37:13;;;;;;;5.77;5.37;;;13.00;99.90;;;;;;5042609;28;20455;-79
2021/06/01 02:39:42;;;;;;;6.17;5.67;;;13.00;99.90;;;;;;5059089;28;20425;-79
2021/06/01 02:42:13;;;;;;;6.30;5.70;;;12.90;99.90;;;;;;5059574;28;20445;-79
2021/06/01 02:44:42;;;;;;;5.53;5.13;;;12.90;99.90;;;;;;5058862;28;20440;-79
2021/06/01 02:47:10;;;;;;;6.07;5.60;;;12.90;99.90;;;;;;5058890;28;20426;-79
2021/06/01 02:49:39;;;;;;;5.83;5.43;;;12.90;99.90;;;;;;5044276;28;20532;-79
2021/06/01 02:52:10;;;;;;;6.50;6.00;;;12.90;99.90;;;;;;5056447;28;20426;-79
2021/06/01 02:54:36;;;;;;;6.17;5.57;;;12.90;99.90;;;;;;5057402;28;20439;-78
2021/06/01 02:57:05;;;;;;;7.20;5.80;;;12.90;99.90;;;;;;5056316;28;20923;-79
2021/06/01 02:59:31;;;;;;;7.30;5.77;;;12.90;99.90;;;;;;5039847;28;20440;-79
2021/06/01 03:02:00;;;;;;;8.03;5.50;;;12.80;99.90;;;;;;5058965;28;20429;-79
2021/06/01 03:04:28;;;;;;;6.30;5.73;;;12.80;99.90;;;;;;5058678;28;20488;-79
2021/06/01 03:06:56;;;;;;;6.80;5.70;;;12.80;99.90;;;;;;5076521;28;20411;-79
2021/06/01 03:09:27;;;;;;;7.17;5.90;;;12.80;99.90;;;;;;5061745;28;20462;-79
2021/06/01 03:12:02;;;;;;;11.17;6.33;;;12.80;99.90;;;;;;5040147;28;20457;-79
2021/06/01 03:14:28;;;;;;;7.03;6.37;;;12.70;99.90;;;;;;5039234;28;20901;-79
2021/06/01 03:16:54;;;;;;;6.70;6.10;;;12.70;99.90;;;;;;5038899;28;20461;-79
2021/06/01 03:19:20;;;;;;;7.30;6.57;;;12.70;99.90;;;;;;5048842;28;20493;-79
2021/06/01 03:21:49;;;;;;;7.80;6.80;;;12.60;99.90;;;;;;5038237;28;20443;-78
2021/06/01 03:24:17;;;;;;;6.80;6.10;;;12.60;99.90;;;;;;5039071;28;20455;-79
2021/06/01 03:26:45;;;;;;;6.80;6.30;;;12.60;99.90;;;;;;5039085;28;20501;-79
2021/06/01 03:29:13;;;;;;;6.40;5.90;;;12.60;99.90;;;;;;5038500;28;20804;-78
2021/06/01 03:31:44;;;;;;;7.10;6.37;;;12.60;99.90;;;;;;5056332;28;20475;-79
2021/06/01 03:34:10;;;;;;;7.30;6.30;;;12.60;99.90;;;;;;5055280;28;20475;-79
2021/06/01 03:36:35;;;;;;;6.47;5.97;;;12.60;99.90;;;;;;5038764;28;20474;-79
2021/06/01 03:39:07;;;;;;;6.37;5.80;;;12.60;99.90;;;;;;5042093;28;20477;-79
2021/06/01 03:41:38;;;;;;;7.30;6.60;;;12.50;99.90;;;;;;5072745;28;20444;-79
2021/06/01 03:44:07;;;;;;;8.70;6.50;;;12.50;99.90;;;;;;5048718;28;20480;-80
2021/06/01 03:46:35;;;;;;;6.97;6.37;;;12.50;99.90;;;;;;5052635;28;20454;-80
2021/06/01 03:49:03;;;;;;;7.90;5.50;;;12.60;99.90;;;;;;5056059;28;20492;-80
2021/06/01 03:51:29;;;;;;;6.43;5.93;;;12.60;99.90;;;;;;5038402;28;20489;-80
2021/06/01 03:53:55;;;;;;;7.47;6.77;;;12.60;99.90;;;;;;5038749;28;20477;-80
2021/06/01 03:56:21;;;;;;;7.60;6.90;;;12.60;99.90;;;;;;5055399;28;20919;-80
2021/06/01 03:58:49;;;;;;;7.07;6.53;;;12.60;99.90;;;;;;5055086;28;20420;-80
2021/06/01 04:01:20;;;;;;;6.93;6.30;;;12.50;99.90;;;;;;5055561;28;20419;-80
2021/06/01 04:03:46;;;;;;;7.40;6.60;;;12.40;99.90;;;;;;5055475;28;20479;-80
2021/06/01 04:06:14;;;;;;;8.63;6.50;;;12.50;99.90;;;;;;5018134;28;20437;-80
2021/06/01 04:08:44;;;;;;;6.53;5.97;;;12.50;99.90;;;;;;5034725;28;20538;-80
2021/06/01 04:11:15;;;;;;;7.30;6.80;;;12.50;99.90;;;;;;5055268;28;20895;-80
2021/06/01 04:13:41;;;;;;;7.47;6.80;;;12.60;99.90;;;;;;5055236;28;20495;-80
2021/06/01 04:16:10;;;;;;;7.40;6.80;;;12.50;99.90;;;;;;5037719;28;20797;-80
2021/06/01 04:18:36;;;;;;;7.57;5.93;;;12.60;99.90;;;;;;5069994;28;20440;-80
2021/06/01 04:21:04;;;;;;;7.10;6.60;;;12.60;99.90;;;;;;5045825;28;20808;-80
2021/06/01 04:23:32;;;;;;;6.23;5.63;;;12.70;99.90;;;;;;5041042;28;20896;-80
2021/06/01 04:25:58;;;;;;;9.50;7.97;;;12.80;99.90;;;;;;5022946;28;20446;-80
2021/06/01 04:28:26;;;;;;;7.87;7.17;;;12.80;99.90;;;;;;5037513;28;20560;-81
2021/06/01 04:30:52;;;;;;;6.80;6.23;;;12.90;99.90;;;;;;5017717;28;21007;-80
2021/06/01 04:33:20;;;;;;;7.13;6.43;;;12.90;99.90;;;;;;5034096;28;20447;-80
2021/06/01 04:35:51;;;;;;;6.63;6.10;;;12.90;99.90;;;;;;5032768;28;20433;-80
2021/06/01 04:38:17;;;;;;;7.07;6.37;;;13.00;99.90;;;;;;5053868;28;20457;-80
2021/06/01 04:40:45;;;;;;;7.47;6.77;;;13.10;99.90;;;;;;5069421;28;20460;-80
2021/06/01 04:43:11;;;;;;;7.43;6.70;;;13.20;99.90;;;;;;5054755;28;20872;-80
2021/06/01 04:45:39;;;;;;;7.17;6.57;;;13.20;99.90;;;;;;5047310;28;20441;-81
2021/06/01 04:48:07;;;;;;;6.40;5.80;;;13.30;99.90;;;;;;5017473;28;20503;-80
2021/06/01 04:50:33;;;;;;;6.40;5.80;;;13.40;99.90;;;;;;5002468;28;20481;-80
2021/06/01 04:52:59;;;;;;;5.80;5.20;;;13.50;99.90;;;;;;5042032;28;20461;-80
2021/06/01 04:55:25;;;;;;;6.10;5.50;;;13.50;99.90;;;;;;5016896;28;20804;-81
2021/06/01 04:57:51;;;;;;;6.90;5.70;;;13.60;99.90;;;;;;5043384;28;20458;-81
2021/06/01 05:00:18;;;;;;;6.30;5.80;;;13.70;99.90;;;;;;5052142;28;20476;-81
2021/06/01 05:02:46;;;;;;;6.47;5.87;;;13.70;99.90;;;;;;5034171;28;20449;-80
2021/06/01 05:05:16;;;;;;;6.57;5.97;;;13.80;99.90;;;;;;5034696;28;20922;-81
2021/06/01 05:07:47;;;;;;;7.10;6.50;;;13.90;99.90;;;;;;5029032;28;20827;-81
2021/06/01 05:10:20;;;;;;;6.87;6.27;;;14.00;99.90;;;;;;5046270;28;20461;-81
2021/06/01 05:12:46;;;;;;;6.70;6.10;;;14.10;99.90;;;;;;5054174;28;20424;-81
2021/06/01 05:15:12;;;;;;;7.00;6.40;;;14.10;99.90;;;;;;5054230;28;20524;-82
2021/06/01 05:17:43;;;;;;;7.00;6.30;;;14.20;99.90;;;;;;5052804;28;20810;-82
2021/06/01 05:20:09;;;;;;;10.43;6.40;;;14.30;99.90;;;;;;5040313;28;20550;-81
2021/06/01 05:22:37;;;;;;;6.57;6.07;;;14.40;99.90;;;;;;5040759;28;20448;-81
2021/06/01 05:25:04;;;;;;;7.10;6.20;;;14.50;99.90;;;;;;5050346;28;20438;-80
2021/06/01 05:27:34;;;;;;;6.83;6.23;;;14.60;99.90;;;;;;5038143;28;20463;-81
2021/06/01 05:30:04;;;;;;;6.10;5.70;;;14.70;99.90;;;;;;5045794;28;20472;-83
2021/06/01 05:35:00;;;;;;;7.20;6.60;;;14.90;99.90;;;;;;5045303;28;20459;-83
2021/06/01 05:37:33;;;;;;;7.50;6.73;;;15.00;99.90;;;;;;5039145;28;20789;-80
2021/06/01 05:39:59;;;;;;;7.57;7.03;;;15.20;99.90;;;;;;5025964;28;20442;-79
2021/06/01 05:42:26;;;;;;;6.80;6.20;;;15.30;99.90;;;;;;4998593;28;20920;-82
2021/06/01 05:44:55;;;;;;;7.67;6.97;;;15.40;99.90;;;;;;5033573;28;20782;-83
2021/06/01 05:47:24;;;;;;;6.90;6.40;;;15.50;99.90;;;;;;5035522;28;20838;-82
2021/06/01 05:49:54;;;;;;;7.03;6.50;;;15.60;99.90;;;;;;5021504;28;20431;-82
2021/06/01 05:52:22;;;;;;;7.83;7.03;;;15.80;99.90;;;;;;5031722;28;20741;-83
2021/06/01 05:54:48;;;;;;;7.83;6.87;;;15.90;99.90;;;;;;5022778;28;20445;-83
2021/06/01 05:57:14;;;;;;;7.30;6.70;;;16.00;99.90;;;;;;5015082;28;20427;-84
2021/06/01 05:59:46;;;;;;;7.33;6.87;;;16.10;99.90;;;;;;5000589;28;20450;-82
2021/06/01 06:02:12;;;;;;;7.20;6.67;;;16.20;99.90;;;;;;5034440;28;20449;-81
2021/06/01 06:04:38;;;;;;;7.67;6.83;;;16.30;99.90;;;;;;5028619;28;20432;-81
2021/06/01 06:07:06;;;;;;;7.53;6.83;;;16.40;99.90;;;;;;4985943;28;20915;-81
2021/06/01 06:09:32;;;;;;;8.03;7.23;;;16.50;99.90;;;;;;5036446;28;20432;-80
2021/06/01 06:11:58;;;;;;;6.93;6.53;;;16.60;98.30;;;;;;5025858;28;20911;-79
2021/06/01 06:14:24;;;;;;;7.57;7.07;;;16.80;97.00;;;;;;5035886;28;20867;-81
2021/06/01 06:16:56;;;;;;;8.37;7.77;;;16.90;96.70;;;;;;5052346;28;20915;-81
2021/06/01 06:19:26;;;;;;;8.00;7.30;;;17.00;96.90;;;;;;5053008;28;20477;-81
2021/06/01 06:21:52;;;;;;;7.30;6.80;;;17.00;96.40;;;;;;5035797;28;20422;-81
2021/06/01 06:24:18;;;;;;;6.93;6.43;;;17.20;97.60;;;;;;5035633;28;20432;-81
2021/06/01 06:26:45;;;;;;;8.03;7.43;;;17.30;96.20;;;;;;5019495;28;20436;-82
2021/06/01 06:29:13;;;;;;;8.10;7.60;;;17.50;95.50;;;;;;5033501;28;20461;-81
2021/06/01 06:31:41;;;;;;;7.53;7.03;;;17.50;95.00;;;;;;5040757;28;20431;-80
2021/06/01 06:34:12;;;;;;;8.03;7.33;;;17.60;95.60;;;;;;5006066;28;20524;-80
2021/06/01 06:36:46;;;;;;;6.97;6.57;;;17.70;94.80;;;;;;5014455;28;20447;-81
2021/06/01 06:39:12;;;;;;;8.60;7.00;;;17.80;94.00;;;;;;5001286;28;20428;-80
2021/06/01 06:41:40;;;;;;;7.77;7.20;;;18.00;94.00;;;;;;5037459;28;20898;-80
2021/06/01 06:44:09;;;;;;;7.30;6.90;;;18.10;93.50;;;;;;5033033;28;20445;-81
2021/06/01 06:46:41;;;;;;;8.67;7.10;;;18.20;93.10;;;;;;5031720;28;20466;-80
2021/06/01 06:49:08;;;;;;;7.20;6.60;;;18.40;92.60;;;;;;5015172;28;20469;-80
2021/06/01 06:51:38;;;;;;;7.20;6.60;;;18.50;92.10;;;;;;5033023;28;20448;-83
2021/06/01 06:54:09;;;;;;;9.03;7.40;;;18.60;91.50;;;;;;5034270;28;20438;-81
2021/06/01 06:56:35;;;;;;;8.10;7.33;;;18.60;91.30;;;;;;5033894;28;20806;-81
2021/06/01 06:59:01;;;;;;;7.30;6.73;;;18.80;91.50;;;;;;5030573;28;20437;-81
2021/06/01 07:01:28;;;;;;;7.97;7.37;;;18.90;90.70;;;;;;5039097;28;20511;-81
2021/06/01 07:03:55;;;;;;;7.70;7.20;;;18.90;89.00;;;;;;5018030;28;20453;-82
2021/06/01 07:06:22;;;;;;;7.70;7.20;;;19.00;89.80;;;;;;5018911;28;20841;-80
2021/06/01 07:08:53;;;;;;;8.20;7.77;;;19.10;88.60;;;;;;5002498;28;20463;-80
2021/06/01 07:11:26;;;;;;;8.53;7.97;;;19.30;89.80;;;;;;5035499;28;20438;-81
2021/06/01 07:14:05;;;;;;;9.47;7.90;;;19.40;88.50;;;;;;5028252;28;20489;-80
2021/06/01 07:16:34;;;;;;;7.73;7.17;;;19.50;86.10;;;;;;5035363;28;20761;-82
2021/06/01 07:19:05;;;;;;;8.17;7.57;;;19.50;85.40;;;;;;5023651;28;20465;-80
2021/06/01 07:21:34;;;;;;;8.07;7.60;;;19.60;86.30;;;;;;5041960;28;20442;-79
2021/06/01 07:24:02;;;;;;;7.33;6.90;;;19.70;86.80;;;;;;5038498;28;20509;-79
2021/06/01 07:26:28;;;;;;;7.33;6.93;;;19.80;85.40;;;;;;5035404;28;20431;-78
2021/06/01 07:28:59;;;;;;;6.97;6.60;;;19.80;90.00;;;;;;5017090;28;20467;-80
2021/06/01 07:31:27;;;;;;;7.33;6.93;;;19.90;87.10;;;;;;5031320;28;20474;-80
2021/06/01 07:33:56;;;;;;;7.53;6.93;;;20.00;85.30;;;;;;5037534;28;20758;-80
2021/06/01 07:36:22;;;;;;;8.07;7.57;;;20.10;87.90;;;;;;5032523;28;20440;-80
2021/06/01 07:38:48;;;;;;;7.47;6.97;;;20.20;82.00;;;;;;5005607;28;20439;-80
2021/06/01 07:41:14;;;;;;;7.97;7.47;;;20.20;84.00;;;;;;5033499;28;20441;-80
2021/06/01 07:43:42;;;;;;;7.73;7.03;;;20.30;82.50;;;;;;5045087;28;20430;-81
2021/06/01 07:46:11;;;;;;;7.97;7.27;;;20.40;80.40;;;;;;5025662;28;20448;-84
2021/06/01 07:48:41;;;;;;;7.40;7.00;;;20.50;80.60;;;;;;5016635;28;20476;-82
2021/06/01 07:51:11;;;;;;;7.90;7.40;;;20.60;79.60;;;;;;5047524;28;20435;-81
2021/06/01 07:53:41;;;;;;;7.23;6.73;;;20.70;79.10;;;;;;5034235;28;20450;-80
2021/06/01 07:56:10;;;;;;;7.63;7.23;;;20.80;78.80;;;;;;5033141;28;20422;-79
2021/06/01 07:58:36;;;;;;;7.20;6.77;;;20.80;79.60;;;;;;5045191;28;20461;-81
2021/06/01 08:01:02;;;;;;;8.07;7.47;;;20.90;76.70;;;;;;5052701;28;20435;-82
2021/06/01 08:03:28;;;;;;;7.50;7.10;;;21.00;78.20;;;;;;5025353;28;20453;-79
2021/06/01 08:05:54;;;;;;;7.70;7.20;;;21.00;75.90;;;;;;5042965;28;20770;-80
2021/06/01 08:08:22;;;;;;;7.60;7.10;;;21.10;76.50;;;;;;5016373;28;20810;-79
2021/06/01 08:10:52;;;;;;;7.80;7.30;;;21.20;75.30;;;;;;5049753;28;20803;-79
2021/06/01 08:13:23;;;;;;;7.90;7.37;;;21.30;75.10;;;;;;5027387;28;20419;-79
2021/06/01 08:15:51;;;;;;;8.17;7.60;;;21.40;74.00;;;;;;5030465;28;20430;-78
2021/06/01 08:18:20;;;;;;;8.30;7.80;;;21.40;72.50;;;;;;5039158;28;20444;-80
2021/06/01 08:23:23;;;;;;;7.43;6.93;;;21.60;72.20;;;;;;5035096;28;20518;-79
2021/06/01 08:25:49;;;;;;;7.23;6.83;;;21.60;70.90;;;;;;5030706;28;20430;-79
2021/06/01 08:28:15;;;;;;;7.80;7.40;;;21.60;69.30;;;;;;5035347;28;20618;-79
2021/06/01 08:30:41;;;;;;;8.17;7.67;;;21.80;70.90;;;;;;5031669;28;20532;-80
2021/06/01 08:33:07;;;;;;;7.80;7.20;;;21.90;68.40;;;;;;5057935;28;20516;-80
2021/06/01 08:35:34;;;;;;;8.27;7.77;;;22.00;66.90;;;;;;5044151;28;20451;-80
2021/06/01 08:38:03;;;;;;;8.00;7.47;;;22.00;64.00;;;;;;5054306;28;20445;-81
2021/06/01 08:40:28;;;;;;;8.17;7.70;;;22.10;64.50;;;;;;5015312;28;20454;-81
2021/06/01 08:42:59;;;;;;;8.13;7.63;;;22.20;64.20;;;;;;5051326;28;20449;-81
2021/06/01 08:45:26;;;;;;;8.37;7.97;;;22.30;69.70;;;;;;5025464;28;20465;-81
2021/06/01 08:47:53;;;;;;;8.00;7.60;;;22.40;65.80;;;;;;5053275;28;20781;-80
2021/06/01 08:50:20;;;;;;;8.67;8.17;;;22.60;67.20;;;;;;5054473;28;20439;-82
2021/06/01 08:52:46;;;;;;;8.70;8.17;;;22.70;64.20;;;;;;5035960;28;20508;-82
2021/06/01 08:55:13;;;;;;;8.53;8.03;;;22.90;60.70;;;;;;5025232;28;20436;-84
2021/06/01 08:57:40;;;;;;;8.40;7.90;;;22.90;59.40;;;;;;5053547;28;20542;-82
2021/06/01 09:00:11;;;;;;;8.10;7.50;;;22.90;58.70;;;;;;5040325;28;20503;-80
2021/06/01 09:02:43;;;;;;;7.23;6.93;;;23.00;61.20;;;;;;5019163;28;20480;-80
2021/06/01 09:05:12;;;;;;;9.13;8.50;;;23.00;61.10;;;;;;5036318;28;20885;-81
2021/06/01 09:08:00;;;;;;;9.13;8.63;;;23.20;59.60;;;;;;5035817;28;20481;-81
2021/06/01 09:13:32;;;;;;;7.60;7.20;;;23.40;56.80;;;;;;5053475;28;20874;-81
2021/06/01 09:21:14;;;;;;;8.77;8.17;;;23.80;56.10;;;;;;5060132;28;20446;-82
2021/06/01 09:24:01;;;;;;;8.20;7.60;;;23.90;57.70;;;;;;5053606;28;20878;-82
2021/06/01 09:29:19;;;;;;;8.07;7.57;;;24.30;55.20;;;;;;5052690;28;20498;-81
2021/06/01 09:32:10;;;;;;;8.20;7.80;;;24.40;58.00;;;;;;5046002;28;20461;-81
2021/06/01 09:34:39;;;;;;;8.93;8.53;;;24.70;58.30;;;;;;5040479;28;20931;-82
2021/06/01 09:37:20;;;;;;;8.17;7.67;;;24.90;54.60;;;;;;5009023;28;20565;-83
2021/06/01 09:40:14;;;;;;;8.23;7.73;;;24.90;54.60;;;;;;5006479;28;20810;-81
2021/06/01 09:42:43;;;;;;;9.17;8.67;;;25.20;53.60;;;;;;5001744;28;20445;-83
2021/06/01 09:45:12;;;;;;;8.57;8.07;;;25.40;52.20;;;;;;5050728;28;20517;-80
2021/06/01 09:47:50;;;;;;;7.97;7.50;;;25.60;52.30;;;;;;5051341;28;20454;-83
2021/06/01 09:52:50;;;;;;;9.40;8.53;;;26.00;52.50;;;;;;5051075;28;20442;-81
2021/06/01 09:58:29;;;;;;;8.30;7.90;;;26.40;51.60;;;;;;5013203;28;20930;-81
2021/06/01 10:01:00;;;;;;;9.53;8.60;;;26.60;51.40;;;;;;5041496;28;20522;-82
2021/06/01 10:03:35;;;;;;;8.50;7.90;;;26.70;51.90;;;;;;5039887;28;20995;-82
2021/06/01 10:06:01;;;;;;;7.70;7.20;;;26.70;45.30;;;;;;5030755;28;20507;-81
2021/06/01 10:08:28;;;;;;;8.10;7.70;;;26.50;45.10;;;;;;5025032;28;20479;-81
2021/06/01 10:11:08;;;;;;;9.17;8.50;;;26.50;48.70;;;;;;5051663;28;20428;-81
2021/06/01 10:13:37;;;;;;;8.47;8.00;;;26.70;47.20;;;;;;5050267;28;20422;-82
2021/06/01 10:16:08;;;;;;;8.70;8.30;;;27.10;48.00;;;;;;5041245;28;20814;-82
2021/06/01 10:18:41;;;;;;;8.67;8.17;;;27.30;44.60;;;;;;5051269;28;20422;-81
2021/06/01 10:21:17;;;;;;;8.80;8.20;;;27.30;44.80;;;;;;5026626;28;20433;-82
2021/06/01 10:23:48;;;;;;;9.10;8.60;;;27.40;43.90;;;;;;5034456;28;20457;-82
2021/06/01 10:26:16;;;;;;;9.50;9.10;;;27.50;44.50;;;;;;5038198;28;20435;-82
2021/06/01 10:28:47;;;;;;;9.33;8.90;;;27.70;46.50;;;;;;5049892;28;20470;-82
2021/06/01 10:31:21;;;;;;;9.57;9.03;;;27.90;45.70;;;;;;5024092;28;20516;-81
2021/06/01 10:33:55;;;;;;;9.57;9.07;;;28.00;44.30;;;;;;5057466;28;20775;-81
2021/06/01 10:50:25;;;;;;;8.73;8.23;;;29.00;40.40;;;;;;5058878;28;20876;-81
2021/06/01 10:55:56;;;;;;;8.87;8.47;;;28.70;38.80;;;;;;5011551;28;20438;-81
2021/06/01 10:58:40;;;;;;;9.90;9.30;;;28.70;40.20;;;;;;5056772;28;20438;-81
2021/06/01 11:04:08;;;;;;;8.30;7.80;;;29.20;40.00;;;;;;5050641;28;20753;-80
2021/06/01 11:06:59;;;;;;;8.73;8.23;;;29.50;40.80;;;;;;5038899;28;20766;-83
2021/06/01 11:09:34;;;;;;;9.97;7.70;;;29.40;39.30;;;;;;5039412;28;20464;-83
2021/06/01 11:14:51;;;;;;;7.80;7.50;;;29.70;39.00;;;;;;5029056;28;20429;-81
2021/06/01 11:17:41;;;;;;;9.30;8.80;;;29.80;39.00;;;;;;5065230;28;20500;-82
2021/06/01 11:20:26;;;;;;;8.80;8.40;;;29.90;37.80;;;;;;5030594;28;20894;-83
2021/06/01 11:23:22;;;;;;;7.67;7.27;;;30.10;38.10;;;;;;5064164;28;20437;-82
2021/06/01 11:33:52;;;;;;;8.30;7.90;;;30.10;35.40;;;;;;4999557;28;20447;-82
2021/06/01 11:36:25;;;;;;;9.97;9.20;;;30.10;36.80;;;;;;5035796;28;20445;-82
2021/06/01 11:45:06;;;;;;;9.10;8.60;;;30.40;37.00;;;;;;5018608;28;20454;-80
2021/06/01 11:47:53;;;;;;;10.20;9.60;;;30.90;38.00;;;;;;5027294;28;20496;-85
2021/06/01 11:53:04;;;;;;;9.50;9.10;;;31.50;37.10;;;;;;5047116;28;20415;-83
2021/06/01 11:55:30;;;;;;;9.13;8.53;;;31.50;35.60;;;;;;5035936;28;20434;-82
2021/06/01 12:03:53;;;;;;;9.33;8.83;;;31.80;33.60;;;;;;5045894;28;20958;-85
2021/06/01 12:12:09;;;;;;;9.23;8.83;;;31.90;34.20;;;;;;5035716;28;20478;-84
2021/06/01 12:17:47;;;;;;;8.70;8.20;;;32.00;33.30;;;;;;5026601;28;20438;-82
2021/06/01 12:20:18;;;;;;;9.70;9.20;;;32.00;34.50;;;;;;5050848;28;20450;-85
2021/06/01 12:22:44;;;;;;;9.43;8.93;;;32.10;33.60;;;;;;5035364;28;20462;-86
2021/06/01 12:25:13;;;;;;;9.20;8.57;;;31.90;33.40;;;;;;5043618;28;20442;-82
2021/06/01 12:28:17;;;;;;;8.80;8.30;;;31.90;33.80;;;;;;5053980;28;20531;-81
2021/06/01 12:31:00;;;;;;;9.00;8.50;;;31.80;34.20;;;;;;5036542;28;20568;-82
2021/06/01 12:33:29;;;;;;;9.07;8.47;;;31.90;34.00;;;;;;5043887;28;20471;-81
2021/06/01 12:44:17;;;;;;;9.00;8.50;;;32.40;32.40;;;;;;5035946;28;20471;-80
2021/06/01 13:14:39;;;;;;;9.50;9.00;;;33.40;30.00;;;;;;5036026;28;20431;-84
2021/06/01 13:20:37;;;;;;;9.03;8.53;;;33.20;30.00;;;;;;5028140;28;20443;-82
2021/06/01 13:56:24;;;;;;;9.33;8.63;;;34.30;28.60;;;;;;5033936;28;20794;-81
2021/06/01 15:51:37;;;;;;;11.40;10.80;;;41.70;23.00;;;;;;5042110;28;20422;-82
2021/06/01 17:05:09;;;;;;;10.20;9.23;;;32.50;28.40;;;;;;5051693;28;20422;-82
2021/06/01 17:13:15;;;;;;;9.90;8.73;;;31.20;31.00;;;;;;5034527;28;20904;-81
2021/06/01 17:15:42;;;;;;;8.83;8.30;;;30.50;31.40;;;;;;5035592;28;20435;-81
2021/06/01 17:37:15;;;;;;;8.33;7.83;;;28.20;36.60;;;;;;5045028;28;20428;-81
2021/06/01 17:39:42;;;;;;;8.47;7.87;;;28.00;36.70;;;;;;5044162;28;20503;-81
2021/06/01 17:42:15;;;;;;;9.27;8.47;;;27.80;38.30;;;;;;5046573;28;20439;-81
2021/06/01 17:44:47;;;;;;;8.73;8.23;;;27.70;37.70;;;;;;5016878;28;20438;-83
2021/06/01 17:47:19;;;;;;;8.20;7.70;;;27.50;39.00;;;;;;5034325;28;20440;-81
2021/06/01 17:49:51;;;;;;;8.93;8.20;;;27.20;38.20;;;;;;5040764;28;20524;-81
2021/06/01 17:52:31;;;;;;;8.43;7.63;;;27.10;37.90;;;;;;5015209;28;20440;-81
2021/06/01 17:54:59;;;;;;;8.37;7.97;;;26.90;38.20;;;;;;5049703;28;20453;-80
2021/06/01 17:57:30;;;;;;;8.20;7.70;;;26.80;39.00;;;;;;5052183;28;20410;-81
2021/06/01 17:59:56;;;;;;;7.93;7.53;;;26.60;38.40;;;;;;5033679;28;20431;-81
2021/06/01 18:02:23;;;;;;;7.13;6.77;;;26.50;38.50;;;;;;5032953;28;20412;-81
2021/06/01 18:04:51;;;;;;;8.63;7.93;;;26.50;39.10;;;;;;5023530;28;20431;-81
2021/06/01 18:07:26;;;;;;;8.30;7.70;;;26.30;39.20;;;;;;5053421;28;20485;-81
2021/06/01 19:02:06;;;;;;;8.77;7.30;;;24.70;44.10;;;;;;5035758;28;20426;-81
2021/06/01 19:51:03;;;;;;;7.30;6.80;;;23.20;45.60;;;;;;5036294;28;20434;-83
2021/06/01 19:53:31;;;;;;;7.40;7.00;;;23.10;46.10;;;;;;5035214;28;20439;-82
2021/06/01 19:55:57;;;;;;;6.90;6.50;;;23.00;45.90;;;;;;5048738;28;20466;-82
2021/06/01 19:58:22;;;;;;;7.10;6.50;;;23.00;45.70;;;;;;5034883;28;20522;-82
2021/06/01 20:00:52;;;;;;;7.10;6.70;;;22.90;46.60;;;;;;4982265;28;20204;-82
2021/06/01 20:03:20;;;;;;;7.40;7.00;;;22.80;46.30;;;;;;5015258;28;20438;-83
2021/06/01 20:05:47;;;;;;;7.60;6.97;;;22.80;46.90;;;;;;5034671;28;20451;-83
2021/06/01 20:08:13;;;;;;;7.67;7.17;;;22.60;47.40;;;;;;5034695;28;20812;-82
2021/06/01 20:10:44;;;;;;;7.00;6.43;;;22.60;47.80;;;;;;5038227;28;20784;-82
2021/06/01 20:13:12;;;;;;;7.10;6.70;;;22.50;48.00;;;;;;5055477;28;20472;-82
2021/06/01 20:15:41;;;;;;;7.97;7.30;;;22.40;48.90;;;;;;5052148;28;20457;-82
2021/06/01 20:18:08;;;;;;;8.00;7.47;;;22.30;49.30;;;;;;5035017;28;20449;-82
2021/06/01 20:20:38;;;;;;;7.70;7.20;;;22.30;50.00;;;;;;5035610;28;20439;-82
2021/06/01 20:23:11;;;;;;;7.40;6.90;;;22.20;50.80;;;;;;5035423;28;20959;-82
2021/06/01 20:25:41;;;;;;;7.30;6.77;;;22.10;51.60;;;;;;5018076;28;20415;-82
2021/06/01 20:28:12;;;;;;;6.90;6.50;;;22.00;52.00;;;;;;5035271;28;20567;-83
2021/06/01 20:30:44;;;;;;;7.50;7.00;;;21.90;51.90;;;;;;5026904;28;20494;-82
2021/06/01 20:33:13;;;;;;;7.87;7.30;;;21.80;52.90;;;;;;5049385;28;20422;-83
2021/06/01 20:35:51;;;;;;;6.97;6.50;;;21.60;53.00;;;;;;5055393;28;20418;-82
2021/06/01 20:38:22;;;;;;;7.60;7.10;;;21.60;53.30;;;;;;5054881;28;20826;-82
2021/06/01 20:40:52;;;;;;;7.83;7.23;;;21.40;53.60;;;;;;5054180;28;20433;-82
2021/06/01 20:43:22;;;;;;;7.70;7.17;;;21.30;54.10;;;;;;5055020;28;20425;-82